Time;durP1;ratioP1;P1;durP2;ratioP2;P2;SDS_P1;SDS_P2;PMS_P1;PMS_P2;Temp;Humidity;BMP_temperature;BMP_pressure;BME280_temperature;BME280_humidity;BME280_pressure;Samples;Min_cycle;Max_cycle;Signal;HPM_P1;HPM_P2
2021/12/13 00:00:10;;;;;;;45.97;19.10;;;9.90;99.90;;;;;;4986185;28;20062;-63
2021/12/13 00:02:53;;;;;;;52.70;18.98;;;9.90;99.90;;;;;;4969314;28;20060;-62
2021/12/13 00:06:11;;;;;;;42.92;17.67;;;9.90;99.90;;;;;;4981589;28;20465;-64
2021/12/13 00:08:41;;;;;;;44.38;17.80;;;9.90;99.90;;;;;;4907913;28;20057;-63
2021/12/13 00:11:14;;;;;;;49.25;17.90;;;9.90;99.90;;;;;;4968718;28;20488;-63
2021/12/13 00:13:47;;;;;;;40.97;16.67;;;9.90;99.90;;;;;;4987173;28;20201;-63
2021/12/13 00:16:17;;;;;;;37.03;16.77;;;9.90;99.90;;;;;;4979881;28;20049;-63
2021/12/13 00:18:53;;;;;;;40.38;17.23;;;9.90;99.90;;;;;;4995594;28;20107;-62
2021/12/13 00:21:24;;;;;;;38.25;16.23;;;9.90;99.90;;;;;;4986301;28;20069;-63
2021/12/13 00:23:54;;;;;;;33.28;16.30;;;9.90;99.90;;;;;;4970624;28;20120;-63
2021/12/13 00:26:33;;;;;;;40.42;17.58;;;9.90;99.90;;;;;;4982035;28;20121;-62
2021/12/13 00:28:59;;;;;;;35.13;15.80;;;9.90;99.90;;;;;;4985637;28;20061;-63
2021/12/13 00:31:47;;;;;;;29.38;15.57;;;9.90;99.90;;;;;;4970211;28;20189;-63
2021/12/13 00:34:20;;;;;;;30.50;15.88;;;9.90;99.90;;;;;;4978965;28;20054;-63
2021/12/13 00:36:53;;;;;;;30.58;14.98;;;9.90;99.90;;;;;;4986540;28;20160;-62
2021/12/13 00:39:27;;;;;;;36.00;15.68;;;9.90;99.90;;;;;;4983379;28;20389;-64
2021/12/13 00:41:53;;;;;;;34.85;15.45;;;9.90;99.90;;;;;;4979658;28;20405;-63
2021/12/13 00:44:29;;;;;;;40.95;17.10;;;9.90;99.90;;;;;;4984178;28;20045;-63
2021/12/13 00:46:57;;;;;;;44.63;18.67;;;9.90;99.90;;;;;;4983891;28;20061;-63
2021/12/13 00:49:28;;;;;;;44.50;18.55;;;9.90;99.90;;;;;;4967912;28;20290;-62
2021/12/13 00:51:56;;;;;;;42.65;18.35;;;9.90;99.90;;;;;;4983855;28;20468;-63
2021/12/13 00:54:32;;;;;;;46.25;18.65;;;9.90;99.90;;;;;;4966945;28;20121;-63
2021/12/13 00:57:01;;;;;;;52.33;19.60;;;9.90;99.90;;;;;;4979620;28;20563;-63
2021/12/13 00:59:32;;;;;;;47.13;19.83;;;9.90;99.90;;;;;;4980285;28;20057;-63
2021/12/13 01:02:15;;;;;;;44.20;18.92;;;9.90;99.90;;;;;;4994900;28;21253;-63
2021/12/13 01:04:59;;;;;;;;;;;9.90;99.90;;;;;;4978730;28;20038;-63
2021/12/13 01:07:43;;;;;;;44.10;19.17;;;9.90;99.90;;;;;;4985691;28;19925;-63
2021/12/13 01:10:43;;;;;;;49.17;19.50;;;9.90;99.90;;;;;;4986566;28;20042;-64
2021/12/13 01:13:38;;;;;;;42.13;19.10;;;9.90;99.90;;;;;;4977237;28;20497;-63
2021/12/13 01:19:27;;;;;;;51.55;20.17;;;9.90;99.90;;;;;;4984866;28;20050;-63
2021/12/13 01:22:41;;;;;;;57.33;20.45;;;9.90;99.90;;;;;;4979872;28;20073;-63
2021/12/13 01:25:44;;;;;;;43.40;18.90;;;9.90;99.90;;;;;;4962496;28;20136;-63
2021/12/13 01:28:41;;;;;;;49.63;19.77;;;9.90;99.90;;;;;;4971487;28;20228;-62
2021/12/13 01:31:12;;;;;;;42.35;18.75;;;9.90;99.90;;;;;;4976732;28;20055;-63
2021/12/13 01:33:41;;;;;;;46.58;18.92;;;9.90;99.90;;;;;;4961091;28;20074;-63
2021/12/13 01:36:09;;;;;;;41.28;17.30;;;9.90;99.90;;;;;;4965223;28;20093;-63
2021/12/13 01:39:05;;;;;;;42.83;17.83;;;9.90;99.90;;;;;;4961393;28;20042;-63
2021/12/13 01:41:42;;;;;;;41.53;16.88;;;9.90;99.90;;;;;;4966945;28;20051;-62
2021/12/13 01:44:16;;;;;;;43.42;17.40;;;9.90;99.90;;;;;;4945596;28;20077;-63
2021/12/13 01:46:47;;;;;;;38.13;16.15;;;9.90;99.90;;;;;;4965293;28;20121;-63
2021/12/13 01:49:13;;;;;;;34.88;15.75;;;9.90;99.90;;;;;;4977562;28;20745;-63
2021/12/13 01:51:40;;;;;;;32.30;15.18;;;9.90;99.90;;;;;;4957866;28;20416;-64
2021/12/13 01:54:13;;;;;;;29.63;14.18;;;9.90;99.90;;;;;;4945874;28;20065;-63
2021/12/13 01:56:58;;;;;;;30.38;15.05;;;9.90;99.90;;;;;;4959552;28;20050;-63
2021/12/13 02:02:23;;;;;;;36.20;14.90;;;9.90;99.90;;;;;;4964088;28;20050;-63
2021/12/13 02:05:06;;;;;;;33.58;15.13;;;9.90;99.90;;;;;;4950051;28;20038;-63
2021/12/13 02:07:44;;;;;;;34.15;16.00;;;9.90;99.90;;;;;;4976309;28;20117;-63
2021/12/13 02:10:20;;;;;;;40.67;17.40;;;9.90;99.90;;;;;;4959307;28;20090;-64
2021/12/13 02:12:54;;;;;;;36.03;16.63;;;9.90;99.90;;;;;;4974982;28;20083;-63
2021/12/13 02:18:11;;;;;;;46.85;19.60;;;9.90;99.90;;;;;;4964438;28;20046;-63
2021/12/13 02:20:43;;;;;;;45.92;19.50;;;10.00;99.90;;;;;;4971798;28;20133;-63
2021/12/13 02:23:09;;;;;;;42.33;19.23;;;9.90;99.90;;;;;;4964742;28;20097;-63
2021/12/13 02:25:44;;;;;;;41.30;19.33;;;9.90;99.90;;;;;;4947401;28;20330;-62
2021/12/13 02:28:09;;;;;;;44.22;20.63;;;9.90;99.90;;;;;;4958898;28;20043;-62
2021/12/13 02:30:45;;;;;;;46.50;20.95;;;9.90;99.90;;;;;;4983132;28;20053;-64
2021/12/13 02:33:15;;;;;;;53.22;21.50;;;9.90;99.90;;;;;;4977451;28;20053;-63
2021/12/13 02:35:46;;;;;;;52.15;20.70;;;9.90;99.90;;;;;;4984496;28;20400;-62
2021/12/13 02:38:14;;;;;;;50.97;21.15;;;10.00;99.90;;;;;;4968973;28;20064;-63
2021/12/13 02:40:40;;;;;;;50.45;21.50;;;10.00;99.90;;;;;;4993669;28;20048;-63
2021/12/13 02:43:10;;;;;;;54.13;22.38;;;9.90;99.90;;;;;;4974770;28;20131;-63
2021/12/13 02:45:43;;;;;;;50.40;21.27;;;9.90;99.90;;;;;;4984057;28;20050;-63
2021/12/13 02:48:17;;;;;;;57.53;21.13;;;9.90;99.90;;;;;;4958714;28;20247;-63
2021/12/13 02:51:05;;;;;;;50.10;21.90;;;10.00;99.90;;;;;;4978298;28;20119;-63
2021/12/13 02:53:40;;;;;;;60.03;21.17;;;9.90;99.90;;;;;;4979372;28;20496;-63
2021/12/13 02:56:06;;;;;;;56.58;21.98;;;9.90;99.90;;;;;;4991219;28;20054;-63
2021/12/13 02:58:35;;;;;;;57.25;21.65;;;9.90;99.90;;;;;;4983068;28;20087;-63
2021/12/13 03:01:06;;;;;;;57.10;21.60;;;9.90;99.90;;;;;;4992637;28;20046;-64
2021/12/13 03:03:38;;;;;;;51.63;20.80;;;9.90;99.90;;;;;;4985368;28;20448;-63
2021/12/13 03:06:07;;;;;;;49.30;20.08;;;9.90;99.90;;;;;;4968514;28;20433;-63
2021/12/13 03:08:43;;;;;;;52.67;18.58;;;9.90;99.90;;;;;;4968957;28;20053;-63
2021/12/13 03:11:22;;;;;;;57.95;20.50;;;9.90;99.90;;;;;;4967328;28;20104;-64
2021/12/13 03:13:56;;;;;;;46.35;19.58;;;9.90;99.90;;;;;;4979720;28;20125;-63
2021/12/13 03:16:28;;;;;;;46.15;17.40;;;9.90;99.90;;;;;;4980628;28;20061;-63
2021/12/13 03:19:10;;;;;;;54.55;18.95;;;9.80;99.90;;;;;;4979578;28;20059;-63
2021/12/13 03:22:14;;;;;;;45.95;16.05;;;9.80;99.90;;;;;;4977169;28;20583;-63
2021/12/13 03:25:07;;;;;;;50.42;16.95;;;9.80;99.90;;;;;;4983444;28;20046;-62
2021/12/13 03:27:45;;;;;;;46.85;17.35;;;9.80;99.90;;;;;;4978969;28;20076;-64
2021/12/13 03:30:28;;;;;;;46.53;17.10;;;9.80;99.90;;;;;;4980015;28;20061;-63
2021/12/13 03:32:56;;;;;;;;;;;9.80;99.90;;;;;;4977353;28;20543;-62
2021/12/13 03:35:30;;;;;;;43.13;15.88;;;9.80;99.90;;;;;;4960389;28;20047;-62
2021/12/13 03:38:07;;;;;;;45.33;15.68;;;9.80;99.90;;;;;;4979586;28;20038;-63
2021/12/13 03:40:33;;;;;;;46.30;16.60;;;9.80;99.90;;;;;;4969104;28;20124;-63
2021/12/13 03:43:05;;;;;;;46.15;16.10;;;9.80;99.90;;;;;;4995092;28;20413;-63
2021/12/13 03:45:38;;;;;;;47.60;17.30;;;9.70;99.90;;;;;;4978088;28;20034;-63
2021/12/13 03:48:06;;;;;;;39.80;16.52;;;9.70;99.90;;;;;;4976674;28;20042;-63
2021/12/13 03:50:38;;;;;;;40.08;16.02;;;9.70;99.90;;;;;;4966365;28;20557;-63
2021/12/13 03:53:15;;;;;;;44.63;16.90;;;9.70;99.90;;;;;;4976418;28;20485;-63
2021/12/13 03:55:46;;;;;;;42.63;15.75;;;9.70;99.90;;;;;;4963916;28;20116;-64
2021/12/13 03:58:15;;;;;;;40.72;15.27;;;9.70;99.90;;;;;;4983695;28;20824;-63
2021/12/13 04:00:50;;;;;;;43.53;15.52;;;9.70;99.90;;;;;;4986547;28;20065;-63
2021/12/13 04:03:16;;;;;;;38.53;14.43;;;9.70;99.90;;;;;;4981160;28;20038;-63
2021/12/13 04:05:43;;;;;;;32.17;14.55;;;9.70;99.90;;;;;;4989522;28;20498;-63
2021/12/13 04:08:12;;;;;;;35.13;12.98;;;9.70;99.90;;;;;;4981514;28;20137;-63
2021/12/13 04:10:47;;;;;;;27.48;12.23;;;9.60;99.90;;;;;;4987232;28;20050;-63
2021/12/13 04:13:15;;;;;;;29.33;12.43;;;9.60;99.90;;;;;;4981662;28;20045;-63
2021/12/13 04:15:53;;;;;;;30.95;11.70;;;9.60;99.90;;;;;;4982363;28;20081;-64
2021/12/13 04:19:06;;;;;;;28.85;12.13;;;9.60;99.90;;;;;;4987967;28;20043;-63
2021/12/13 04:21:44;;;;;;;27.90;10.85;;;9.60;99.90;;;;;;4987275;28;20042;-63
2021/12/13 04:24:26;;;;;;;20.30;9.95;;;9.60;99.90;;;;;;4980753;28;20050;-62
2021/12/13 04:26:59;;;;;;;22.02;10.13;;;9.60;99.90;;;;;;4997836;28;20053;-63
2021/12/13 04:29:30;;;;;;;28.83;9.98;;;9.60;99.90;;;;;;4972075;28;20057;-63
2021/12/13 04:32:08;;;;;;;21.80;8.85;;;9.60;99.90;;;;;;4997250;28;20105;-63
2021/12/13 04:34:41;;;;;;;18.23;7.97;;;9.60;99.90;;;;;;4981536;28;20144;-63
2021/12/13 04:37:11;;;;;;;19.45;8.48;;;9.50;99.90;;;;;;4987256;28;20060;-64
2021/12/13 04:39:40;;;;;;;18.92;8.27;;;9.50;99.90;;;;;;4982613;28;20116;-64
2021/12/13 04:42:11;;;;;;;22.23;8.90;;;9.50;99.90;;;;;;4971809;28;20045;-62
2021/12/13 04:44:55;;;;;;;18.65;8.30;;;9.50;99.90;;;;;;4978420;28;21411;-63
2021/12/13 04:47:52;;;;;;;21.02;7.97;;;9.50;99.90;;;;;;4987309;28;20064;-63
2021/12/13 04:50:22;;;;;;;18.00;7.68;;;9.50;99.90;;;;;;4985546;28;20557;-64
2021/12/13 04:52:48;;;;;;;22.77;8.10;;;9.50;99.90;;;;;;4995359;28;20046;-63
2021/12/13 04:55:40;;;;;;;21.33;8.10;;;9.50;99.90;;;;;;4980782;28;20100;-64
2021/12/13 04:58:10;;;;;;;21.90;7.90;;;9.50;99.90;;;;;;4983307;28;20058;-63
2021/12/13 05:00:42;;;;;;;14.68;7.65;;;9.50;99.90;;;;;;4981975;28;20046;-63
2021/12/13 05:03:10;;;;;;;17.35;7.50;;;9.50;99.90;;;;;;4980898;28;20045;-63
2021/12/13 05:05:37;;;;;;;16.73;7.07;;;9.50;99.90;;;;;;4996236;28;20046;-63
2021/12/13 05:08:06;;;;;;;9.90;6.28;;;9.50;99.90;;;;;;4968797;28;20049;-63
2021/12/13 05:10:33;;;;;;;13.18;6.03;;;9.50;99.90;;;;;;4990367;28;20042;-63
2021/12/13 05:12:59;;;;;;;14.82;7.07;;;9.40;99.90;;;;;;4970036;28;20042;-63
2021/12/13 05:15:26;;;;;;;13.38;6.43;;;9.40;99.90;;;;;;4986780;28;20053;-63
2021/12/13 05:17:53;;;;;;;11.85;6.18;;;9.40;99.90;;;;;;4970423;28;20504;-63
2021/12/13 05:20:31;;;;;;;10.68;5.90;;;9.40;99.90;;;;;;4995832;28;20046;-64
2021/12/13 05:23:01;;;;;;;11.98;6.03;;;9.40;99.90;;;;;;4984064;28;20158;-63
2021/12/13 05:25:32;;;;;;;14.32;5.78;;;9.40;99.90;;;;;;4979638;28;20042;-64
2021/12/13 05:28:37;;;;;;;9.60;5.30;;;9.40;99.90;;;;;;4997531;28;20046;-62
2021/12/13 05:31:18;;;;;;;12.48;5.55;;;9.40;99.90;;;;;;4980748;28;20085;-63
2021/12/13 05:33:48;;;;;;;11.85;5.90;;;9.40;99.90;;;;;;4979461;28;20738;-63
2021/12/13 05:36:22;;;;;;;14.55;7.00;;;9.30;99.90;;;;;;4980009;28;20042;-64
2021/12/13 05:38:59;;;;;;;13.57;7.35;;;9.40;99.90;;;;;;4969987;28;20512;-64
2021/12/13 05:41:29;;;;;;;12.38;7.13;;;9.30;99.90;;;;;;4979263;28;20050;-63
2021/12/13 05:43:59;;;;;;;10.27;6.53;;;9.40;99.90;;;;;;4971168;28;20050;-64
2021/12/13 05:46:42;;;;;;;13.50;7.65;;;9.40;99.90;;;;;;4980312;28;20085;-63
2021/12/13 05:49:19;;;;;;;14.35;8.95;;;9.40;99.90;;;;;;4978561;28;20081;-63
2021/12/13 05:51:49;;;;;;;13.27;8.45;;;9.40;99.90;;;;;;4980843;28;20053;-63
2021/12/13 05:54:41;;;;;;;15.23;8.48;;;9.40;99.90;;;;;;4986396;28;20055;-64
2021/12/13 05:57:35;;;;;;;19.17;8.75;;;9.40;99.90;;;;;;4986298;28;20054;-63
2021/12/13 06:00:19;;;;;;;14.57;8.73;;;9.40;99.90;;;;;;4970201;28;20397;-63
2021/12/13 06:03:04;;;;;;;19.92;8.43;;;9.40;99.90;;;;;;4976063;28;20047;-63
2021/12/13 06:05:38;;;;;;;15.02;9.35;;;9.30;99.90;;;;;;4995353;28;20045;-63
2021/12/13 06:08:42;;;;;;;16.30;8.38;;;9.30;99.90;;;;;;4978737;28;20042;-63
2021/12/13 06:11:09;;;;;;;;;;;9.30;99.90;;;;;;4945428;29;20134;-64
2021/12/13 06:13:41;;;;;;;15.25;8.30;;;9.30;99.90;;;;;;4973036;28;20784;-63
2021/12/13 06:16:08;;;;;;;16.83;9.02;;;9.30;99.90;;;;;;4979211;28;20052;-63
2021/12/13 06:18:41;;;;;;;15.93;10.43;;;9.30;99.90;;;;;;4990384;28;20050;-63
2021/12/13 06:21:38;;;;;;;19.45;10.73;;;9.30;99.90;;;;;;4948345;28;20053;-64
2021/12/13 06:24:05;;;;;;;20.88;12.65;;;9.30;99.90;;;;;;4986161;28;20046;-63
2021/12/13 06:26:31;;;;;;;20.75;11.85;;;9.30;99.90;;;;;;4985487;28;20077;-63
2021/12/13 06:29:00;;;;;;;17.42;11.10;;;9.30;99.90;;;;;;4985446;28;20527;-63
2021/12/13 06:31:43;;;;;;;22.15;11.48;;;9.30;99.90;;;;;;4984414;28;20201;-64
2021/12/13 06:34:10;;;;;;;;;;;9.30;99.90;;;;;;4993420;28;20421;-63
2021/12/13 06:36:49;;;;;;;20.52;12.07;;;9.30;99.90;;;;;;4975927;28;19917;-63
2021/12/13 06:39:44;;;;;;;22.80;11.60;;;9.30;99.90;;;;;;4979620;28;20125;-64
2021/12/13 06:42:13;;;;;;;17.33;10.98;;;9.30;99.90;;;;;;4962516;28;20069;-64
2021/12/13 06:44:43;;;;;;;19.40;11.90;;;9.30;99.90;;;;;;4982933;28;20132;-63
2021/12/13 06:47:18;;;;;;;18.42;11.00;;;9.30;99.90;;;;;;4985201;28;20085;-63
2021/12/13 06:49:44;;;;;;;15.82;10.82;;;9.30;99.90;;;;;;4984359;28;20087;-63
2021/12/13 06:52:13;;;;;;;19.85;10.63;;;9.30;99.90;;;;;;4953427;28;20050;-64
2021/12/13 06:54:38;;;;;;;21.35;11.55;;;9.30;99.90;;;;;;4985787;28;20046;-63
2021/12/13 06:57:13;;;;;;;19.08;11.35;;;9.30;99.90;;;;;;4982969;28;20143;-64
2021/12/13 06:59:50;;;;;;;19.25;10.98;;;9.30;99.90;;;;;;4978724;28;20045;-63
2021/12/13 07:02:25;;;;;;;20.70;12.07;;;9.30;99.90;;;;;;4979560;28;20073;-63
2021/12/13 07:04:59;;;;;;;21.08;11.57;;;9.30;99.90;;;;;;4979169;28;20041;-63
2021/12/13 07:07:40;;;;;;;18.10;10.63;;;9.20;99.90;;;;;;4985402;28;20038;-63
2021/12/13 07:10:25;;;;;;;20.50;11.25;;;9.30;99.90;;;;;;4982989;28;20054;-63
2021/12/13 07:12:56;;;;;;;17.48;11.15;;;9.20;99.90;;;;;;4977298;28;20133;-63
2021/12/13 07:15:29;;;;;;;25.05;12.60;;;9.20;99.90;;;;;;4982132;28;20128;-64
2021/12/13 07:18:13;;;;;;;18.80;13.00;;;9.20;99.90;;;;;;4966168;28;20046;-63
2021/12/13 07:20:51;;;;;;;20.80;10.40;;;9.20;99.90;;;;;;4978328;28;20086;-63
2021/12/13 07:23:18;;;;;;;16.52;10.27;;;9.20;99.90;;;;;;4978587;28;20051;-63
2021/12/13 07:25:46;;;;;;;19.48;10.15;;;9.20;99.90;;;;;;4954339;28;20042;-64
2021/12/13 07:28:36;;;;;;;14.55;9.80;;;9.20;99.90;;;;;;4966865;28;20061;-64
2021/12/13 07:31:08;;;;;;;19.83;10.07;;;9.20;99.90;;;;;;4983902;28;20059;-63
2021/12/13 07:33:44;;;;;;;16.42;10.32;;;9.20;99.90;;;;;;4963527;28;20085;-64
2021/12/13 07:36:19;;;;;;;17.55;10.75;;;9.20;99.90;;;;;;4989025;28;20135;-63
2021/12/13 07:38:49;;;;;;;17.77;11.13;;;9.20;99.90;;;;;;4988381;28;20054;-64
2021/12/13 07:41:16;;;;;;;15.80;10.35;;;9.20;99.90;;;;;;4966988;28;20482;-63
2021/12/13 07:43:44;;;;;;;18.02;11.23;;;9.20;99.90;;;;;;4988649;28;20053;-64
2021/12/13 07:46:21;;;;;;;16.35;10.88;;;9.30;99.90;;;;;;4982793;28;20197;-64
2021/12/13 07:48:49;;;;;;;21.08;12.00;;;9.20;99.90;;;;;;4998395;28;20050;-63
2021/12/13 07:51:47;;;;;;;19.95;11.50;;;9.20;99.90;;;;;;4998976;28;20093;-64
2021/12/13 07:54:17;;;;;;;23.77;13.00;;;9.20;99.90;;;;;;4969671;28;20089;-63
2021/12/13 07:56:49;;;;;;;20.65;11.32;;;9.20;99.90;;;;;;4994640;28;20054;-63
2021/12/13 07:59:34;;;;;;;21.67;14.15;;;9.20;99.90;;;;;;4987398;28;20049;-64
2021/12/13 08:02:09;;;;;;;22.98;14.95;;;9.20;99.90;;;;;;4968733;28;20038;-63
2021/12/13 08:04:56;;;;;;;25.38;15.63;;;9.20;99.90;;;;;;4998418;28;20050;-63
2021/12/13 08:07:31;;;;;;;26.77;15.60;;;9.20;99.90;;;;;;4987944;28;20488;-63
2021/12/13 08:10:06;;;;;;;21.88;14.43;;;9.20;99.90;;;;;;4981640;28;20050;-64
2021/12/13 08:12:42;;;;;;;27.73;16.10;;;9.30;99.90;;;;;;4988703;28;20412;-63
2021/12/13 08:15:14;;;;;;;24.65;15.52;;;9.20;99.90;;;;;;4999079;28;20428;-63
2021/12/13 08:17:44;;;;;;;24.17;14.57;;;9.30;99.90;;;;;;4987439;28;20441;-63
2021/12/13 08:20:17;;;;;;;27.25;15.70;;;9.20;99.90;;;;;;4971348;28;20132;-63
2021/12/13 08:22:46;;;;;;;23.92;15.48;;;9.30;99.90;;;;;;4983306;28;20049;-63
2021/12/13 08:25:26;;;;;;;21.67;15.00;;;9.30;99.90;;;;;;4971335;28;20108;-63
2021/12/13 08:27:59;;;;;;;27.15;15.95;;;9.30;99.90;;;;;;4970154;28;20046;-63
2021/12/13 08:30:48;;;;;;;25.30;16.55;;;9.30;99.90;;;;;;4997543;28;20038;-64
2021/12/13 08:33:18;;;;;;;30.98;18.92;;;9.20;99.90;;;;;;4997081;28;20149;-63
2021/12/13 08:35:57;;;;;;;31.80;19.25;;;9.30;99.90;;;;;;4985229;28;20045;-63
2021/12/13 08:38:35;;;;;;;27.70;19.27;;;9.30;99.90;;;;;;4987987;28;20042;-63
2021/12/13 08:41:16;;;;;;;29.63;19.35;;;9.30;99.90;;;;;;4981691;28;20050;-63
2021/12/13 08:44:13;;;;;;;29.40;19.08;;;9.30;99.90;;;;;;4967299;28;20041;-64
2021/12/13 08:46:59;;;;;;;34.30;19.92;;;9.40;99.90;;;;;;4972425;28;20438;-64
2021/12/13 08:49:43;;;;;;;25.95;18.08;;;9.40;99.90;;;;;;4981254;28;20077;-63
2021/12/13 08:52:30;;;;;;;26.35;17.52;;;9.40;99.90;;;;;;4964132;28;20065;-63
2021/12/13 08:55:01;;;;;;;27.13;17.40;;;9.40;99.90;;;;;;4976588;28;20485;-63
2021/12/13 08:58:14;;;;;;;25.08;16.88;;;9.40;99.90;;;;;;4972108;28;20076;-63
2021/12/13 09:00:40;;;;;;;25.90;17.73;;;9.40;99.90;;;;;;4982632;28;20437;-63
2021/12/13 09:03:12;;;;;;;31.58;19.58;;;9.40;99.90;;;;;;4966380;28;20052;-64
2021/12/13 09:05:47;;;;;;;29.50;18.48;;;9.40;99.90;;;;;;4997414;28;20100;-63
2021/12/13 09:08:15;;;;;;;28.92;18.65;;;9.50;99.90;;;;;;4982722;28;20050;-63
2021/12/13 09:10:52;;;;;;;30.77;19.83;;;9.50;99.90;;;;;;4987511;28;20121;-64
2021/12/13 09:13:41;;;;;;;26.60;18.55;;;9.50;99.90;;;;;;4970775;28;20047;-64
2021/12/13 09:16:09;;;;;;;24.45;17.88;;;9.50;99.90;;;;;;4980227;28;20049;-63
2021/12/13 09:18:35;;;;;;;28.83;19.58;;;9.50;99.90;;;;;;4981056;28;20557;-64
2021/12/13 09:21:04;;;;;;;28.35;19.70;;;9.50;99.90;;;;;;4996566;28;20053;-63
2021/12/13 09:23:39;;;;;;;27.45;20.33;;;9.50;99.90;;;;;;4979530;28;20598;-63
2021/12/13 09:26:40;;;;;;;28.60;18.45;;;9.60;99.90;;;;;;4986537;28;20072;-63
2021/12/13 09:29:07;;;;;;;28.90;19.50;;;9.60;99.90;;;;;;4955869;28;20516;-64
2021/12/13 09:31:37;;;;;;;24.35;18.70;;;9.60;99.90;;;;;;4970266;28;20089;-63
2021/12/13 09:34:14;;;;;;;24.77;17.70;;;9.60;99.90;;;;;;4985291;28;20200;-63
2021/12/13 09:36:47;;;;;;;25.23;18.25;;;9.60;99.90;;;;;;4985658;28;20049;-63
2021/12/13 09:39:20;;;;;;;23.88;17.23;;;9.60;99.90;;;;;;4996437;28;20053;-63
2021/12/13 09:41:57;;;;;;;;;;;9.60;99.90;;;;;;4986952;28;20109;-63
2021/12/13 09:44:48;;;;;;;25.55;17.88;;;9.60;99.90;;;;;;4981340;28;19939;-63
2021/12/13 09:47:18;;;;;;;26.83;17.55;;;9.60;99.90;;;;;;4971978;28;20048;-63
2021/12/13 09:50:22;;;;;;;26.00;16.88;;;9.60;99.90;;;;;;4986425;28;20050;-64
2021/12/13 09:52:53;;;;;;;21.48;16.25;;;9.60;99.90;;;;;;4985049;28;20108;-63
2021/12/13 09:55:28;;;;;;;24.83;16.85;;;9.60;99.90;;;;;;4979473;28;20527;-64
2021/12/13 09:58:04;;;;;;;26.85;16.38;;;9.60;99.90;;;;;;4969804;28;20403;-63
2021/12/13 10:00:54;;;;;;;22.42;15.43;;;9.60;99.90;;;;;;4979718;28;20085;-63
2021/12/13 10:03:31;;;;;;;24.35;16.90;;;9.60;99.90;;;;;;4969027;28;20501;-63
2021/12/13 10:06:03;;;;;;;24.38;16.30;;;9.70;99.90;;;;;;4984738;28;20557;-64
2021/12/13 10:08:40;;;;;;;25.73;16.38;;;9.70;99.90;;;;;;4973422;28;20050;-63
2021/12/13 10:11:13;;;;;;;26.95;16.00;;;9.60;99.90;;;;;;4978895;28;20045;-63
2021/12/13 10:13:42;;;;;;;25.75;15.93;;;9.70;99.90;;;;;;4965664;28;20132;-63
2021/12/13 10:16:12;;;;;;;21.30;15.50;;;9.60;99.90;;;;;;4969053;28;20076;-64
2021/12/13 10:18:42;;;;;;;20.63;14.95;;;9.70;99.90;;;;;;4983892;28;20065;-64
2021/12/13 10:21:13;;;;;;;21.83;14.60;;;9.70;99.90;;;;;;4977992;28;20099;-63
2021/12/13 10:23:45;;;;;;;18.38;14.88;;;9.60;99.90;;;;;;4983899;28;20046;-63
2021/12/13 10:26:13;;;;;;;23.15;14.38;;;9.60;99.90;;;;;;4986546;28;20097;-64
2021/12/13 10:28:42;;;;;;;25.48;14.27;;;9.70;99.90;;;;;;4968132;28;20121;-64
2021/12/13 10:31:18;;;;;;;25.58;14.38;;;9.70;99.90;;;;;;4978755;28;20128;-63
2021/12/13 10:33:44;;;;;;;17.63;14.07;;;9.70;99.90;;;;;;4979568;28;20178;-63
2021/12/13 10:36:10;;;;;;;21.98;15.23;;;9.70;99.90;;;;;;4979925;28;20493;-64
2021/12/13 10:38:48;;;;;;;25.15;14.77;;;9.80;99.90;;;;;;4987094;28;20046;-63
2021/12/13 10:41:21;;;;;;;22.33;14.30;;;9.80;99.90;;;;;;4979054;28;20108;-64
2021/12/13 10:43:52;;;;;;;21.52;14.32;;;9.80;99.90;;;;;;4985866;28;20042;-63
2021/12/13 10:46:35;;;;;;;19.95;14.00;;;9.80;99.90;;;;;;4968930;28;20568;-63
2021/12/13 10:49:11;;;;;;;19.92;14.25;;;9.80;99.90;;;;;;4963209;28;20049;-64
2021/12/13 10:51:40;;;;;;;19.77;14.68;;;9.80;99.90;;;;;;4995000;28;20397;-63
2021/12/13 10:54:11;;;;;;;20.77;14.32;;;9.90;99.90;;;;;;4986230;28;20049;-64
2021/12/13 10:56:50;;;;;;;19.08;14.00;;;9.90;99.90;;;;;;4979710;28;20041;-63
2021/12/13 10:59:20;;;;;;;26.13;14.70;;;9.80;99.90;;;;;;4985044;28;20042;-63
2021/12/13 11:01:50;;;;;;;22.67;14.43;;;9.90;99.90;;;;;;4977014;28;20410;-65
2021/12/13 11:04:42;;;;;;;26.17;15.27;;;9.80;99.90;;;;;;4986133;28;20040;-63
2021/12/13 11:07:10;;;;;;;21.65;14.95;;;9.80;99.90;;;;;;4963436;28;20057;-63
2021/12/13 11:09:39;;;;;;;22.50;14.43;;;9.80;99.90;;;;;;4987641;28;20392;-63
2021/12/13 11:12:26;;;;;;;22.75;15.68;;;9.80;99.90;;;;;;4982559;28;20117;-63
2021/12/13 11:14:54;;;;;;;22.23;14.63;;;9.80;99.90;;;;;;4982169;28;20046;-64
2021/12/13 11:17:25;;;;;;;24.30;14.90;;;9.80;99.90;;;;;;4955740;28;20112;-64
2021/12/13 11:19:57;;;;;;;21.05;14.05;;;9.80;99.90;;;;;;4951661;28;20049;-64
2021/12/13 11:22:28;;;;;;;25.20;15.23;;;9.80;99.90;;;;;;4963981;28;20053;-63
2021/12/13 11:24:58;;;;;;;25.45;14.75;;;9.80;99.90;;;;;;4989752;28;20053;-64
2021/12/13 11:27:31;;;;;;;26.13;15.48;;;9.80;99.90;;;;;;4956243;28;20115;-63
2021/12/13 11:29:58;;;;;;;19.63;14.38;;;9.80;99.90;;;;;;4982167;28;20599;-64
2021/12/13 11:32:37;;;;;;;23.70;15.38;;;9.90;99.90;;;;;;4993290;28;20058;-63
2021/12/13 11:35:15;;;;;;;22.90;14.18;;;9.80;99.90;;;;;;4986540;28;20038;-63
2021/12/13 11:37:59;;;;;;;24.67;14.30;;;9.90;99.90;;;;;;4965912;28;20042;-64
2021/12/13 11:40:56;;;;;;;22.40;14.70;;;9.90;99.90;;;;;;4983071;28;20056;-63
2021/12/13 11:44:03;;;;;;;20.77;14.48;;;9.90;99.90;;;;;;4986256;28;20034;-63
2021/12/13 11:47:06;;;;;;;19.80;14.52;;;9.90;99.90;;;;;;4970740;28;20057;-63
2021/12/13 11:49:52;;;;;;;;;;;9.90;99.90;;;;;;4978250;28;20085;-64
2021/12/13 11:52:58;;;;;;;20.02;14.02;;;9.90;99.90;;;;;;5001158;28;20381;-63
2021/12/13 11:55:54;;;;;;;21.92;14.05;;;9.90;99.90;;;;;;4978299;28;20058;-63
2021/12/13 11:58:47;;;;;;;21.98;15.07;;;10.00;99.90;;;;;;4961064;28;20046;-64
2021/12/13 12:01:46;;;;;;;20.10;14.63;;;10.00;99.90;;;;;;4986754;28;20435;-64
2021/12/13 12:04:34;;;;;;;25.88;15.52;;;10.10;99.90;;;;;;4991453;28;20034;-63
2021/12/13 12:07:03;;;;;;;20.77;14.80;;;10.10;99.90;;;;;;4993973;28;20068;-63
2021/12/13 12:10:06;;;;;;;20.73;14.00;;;10.10;99.90;;;;;;4985838;28;20041;-63
2021/12/13 12:12:51;;;;;;;;;;;10.20;99.90;;;;;;4971191;28;20050;-63
2021/12/13 12:15:19;;;;;;;21.48;13.38;;;10.10;99.90;;;;;;4977203;28;19928;-63
2021/12/13 12:17:45;;;;;;;20.85;13.82;;;10.10;99.90;;;;;;4977769;28;20141;-63
2021/12/13 12:20:18;;;;;;;25.80;13.80;;;10.10;99.90;;;;;;5001678;28;20088;-63
2021/12/13 12:23:00;;;;;;;25.77;15.48;;;10.10;99.90;;;;;;4986255;28;20046;-63
2021/12/13 12:25:29;;;;;;;26.47;15.47;;;10.10;99.90;;;;;;4992463;28;20042;-63
2021/12/13 12:27:58;;;;;;;23.48;15.68;;;10.10;99.90;;;;;;4971171;28;20042;-63
2021/12/13 12:30:40;;;;;;;24.73;16.45;;;10.10;99.90;;;;;;4992138;28;20659;-63
2021/12/13 12:33:10;;;;;;;21.77;15.77;;;10.00;99.90;;;;;;4986496;28;20100;-63
2021/12/13 12:35:47;;;;;;;30.13;16.52;;;10.00;99.90;;;;;;4969649;28;20037;-63
2021/12/13 12:38:41;;;;;;;26.35;17.00;;;10.00;99.90;;;;;;4984339;28;20120;-63
2021/12/13 12:41:06;;;;;;;28.58;17.00;;;10.00;99.90;;;;;;4953868;28;20501;-64
2021/12/13 12:46:31;;;;;;;37.22;18.27;;;10.00;99.90;;;;;;2839785;23;20055;-64
2021/12/13 12:48:58;;;;;;;37.20;17.50;;;9.90;99.90;;;;;;4912812;29;20142;-63
2021/12/13 12:51:27;;;;;;;29.65;16.88;;;10.00;99.90;;;;;;4884788;29;20047;-64
2021/12/13 12:54:13;;;;;;;34.92;17.92;;;10.00;99.90;;;;;;4900602;29;20071;-64
2021/12/13 12:56:50;;;;;;;27.83;15.23;;;10.00;99.90;;;;;;4894606;29;20626;-63
2021/12/13 12:59:51;;;;;;;25.58;15.30;;;9.90;99.90;;;;;;4895517;29;20174;-63
2021/12/13 13:02:17;;;;;;;25.67;15.27;;;10.00;99.90;;;;;;4891312;29;20055;-63
2021/12/13 13:04:46;;;;;;;29.67;15.07;;;10.00;99.90;;;;;;4931623;29;20520;-64
2021/12/13 13:07:13;;;;;;;27.90;15.00;;;10.00;99.90;;;;;;4914842;29;20092;-64
2021/12/13 13:09:45;;;;;;;28.85;14.90;;;9.90;99.90;;;;;;4909794;29;20054;-64
2021/12/13 13:12:33;;;;;;;27.10;15.55;;;10.00;99.90;;;;;;4914697;29;20082;-63
2021/12/13 13:15:05;;;;;;;24.27;15.07;;;10.00;99.90;;;;;;4914817;29;20044;-64
2021/12/13 13:17:34;;;;;;;27.30;15.80;;;10.00;99.90;;;;;;4883839;29;20062;-64
2021/12/13 13:20:06;;;;;;;25.73;14.93;;;10.00;99.90;;;;;;4914387;29;20103;-64
2021/12/13 13:22:36;;;;;;;26.65;15.85;;;10.00;99.90;;;;;;4898528;29;20035;-64
2021/12/13 13:25:14;;;;;;;24.58;14.07;;;10.10;99.90;;;;;;4915577;29;20083;-64
2021/12/13 13:27:40;;;;;;;23.02;14.50;;;10.10;99.90;;;;;;4910866;29;20505;-64
2021/12/13 13:30:29;;;;;;;23.42;14.40;;;10.10;99.90;;;;;;4915658;29;20127;-63
2021/12/13 13:32:55;;;;;;;27.15;14.23;;;10.10;99.90;;;;;;4907993;29;20483;-64
2021/12/13 13:35:22;;;;;;;23.17;13.65;;;10.10;99.90;;;;;;4910102;29;20506;-64